Time;durP1;ratioP1;P1;durP2;ratioP2;P2;SDS_P1;SDS_P2;PMS_P1;PMS_P2;Temp;Humidity;BMP_temperature;BMP_pressure;BME280_temperature;BME280_humidity;BME280_pressure;Samples;Min_cycle;Max_cycle;Signal;HPM_P1;HPM_P2
2021/05/29 00:02:03;;;;;;;14.83;12.43;;;;;;;11.21;73.54;96816.34;1739315;81;20943;-85
2021/05/29 00:04:28;;;;;;;17.32;13.55;;;;;;;11.21;73.59;96807.23;1749786;81;20939;-85
2021/05/29 00:06:55;;;;;;;15.13;13.30;;;;;;;11.23;73.55;96808.39;1759580;81;21015;-84
2021/05/29 00:09:20;;;;;;;18.98;14.40;;;;;;;11.26;73.71;96806.24;1750960;81;21022;-84
2021/05/29 00:11:46;;;;;;;17.67;14.43;;;;;;;11.28;73.77;96806.87;1756846;81;21242;-84
2021/05/29 00:14:12;;;;;;;16.50;13.85;;;;;;;11.32;73.81;96807.33;1747947;81;20982;-84
2021/05/29 00:16:38;;;;;;;19.92;14.40;;;;;;;11.28;73.61;96805.57;1751010;80;21022;-85
2021/05/29 00:19:04;;;;;;;16.20;13.20;;;;;;;11.29;73.91;96805.08;1743058;81;20947;-85
2021/05/29 00:21:29;;;;;;;16.05;13.28;;;;;;;11.29;73.83;96802.48;1726815;81;21450;-84
2021/05/29 00:23:55;;;;;;;17.27;13.50;;;;;;;11.30;73.67;96811.41;1683438;84;21058;-85
2021/05/29 00:26:21;;;;;;;15.63;13.00;;;;;;;11.31;73.76;96807.81;1710060;83;21030;-84
2021/05/29 00:28:46;;;;;;;17.80;14.35;;;;;;;11.33;73.70;96807.14;1701730;83;21041;-84
2021/05/29 00:31:13;;;;;;;16.67;14.45;;;;;;;11.35;73.70;96801.77;1694854;83;21077;-84
2021/05/29 00:33:38;;;;;;;18.30;14.85;;;;;;;11.37;73.86;96800.59;1691492;83;21109;-84
2021/05/29 00:36:04;;;;;;;15.72;14.03;;;;;;;11.36;73.85;96792.97;1686360;83;21117;-84
2021/05/29 00:38:30;;;;;;;17.50;14.05;;;;;;;11.33;73.92;96791.53;1739582;81;21294;-84
2021/05/29 00:40:56;;;;;;;15.53;13.40;;;;;;;11.33;74.04;96797.23;1741652;81;20930;-85
2021/05/29 00:43:22;;;;;;;14.13;12.63;;;;;;;11.31;73.80;96790.91;1747413;81;20963;-85
2021/05/29 00:45:49;;;;;;;17.25;15.08;;;;;;;11.36;74.03;96789.88;1745981;81;21066;-85
2021/05/29 00:48:14;;;;;;;16.02;14.30;;;;;;;11.34;73.88;96789.25;1749639;80;20951;-85
2021/05/29 00:50:49;;;;;;;18.30;15.45;;;;;;;11.36;74.18;96796.38;1677105;83;21009;-85
2021/05/29 00:53:16;;;;;;;15.90;14.20;;;;;;;11.34;74.21;96793.15;1746888;81;22466;-85
2021/05/29 00:55:44;;;;;;;15.93;13.45;;;;;;;11.33;74.19;96790.23;1738111;81;20990;-84
2021/05/29 00:58:10;;;;;;;21.02;17.70;;;;;;;11.37;74.25;96791.49;1750887;81;21039;-85
2021/05/29 01:00:36;;;;;;;18.82;16.82;;;;;;;11.36;74.27;96791.17;1739226;81;21002;-85
2021/05/29 01:03:02;;;;;;;19.62;16.77;;;;;;;11.34;74.37;96785.34;1748538;81;20960;-85
2021/05/29 01:05:27;;;;;;;21.45;18.20;;;;;;;11.32;74.46;96783.91;1681633;83;21037;-85
2021/05/29 01:07:54;;;;;;;21.12;18.10;;;;;;;11.27;74.42;96787.05;1748180;81;21046;-84
2021/05/29 01:10:22;;;;;;;20.12;18.07;;;;;;;11.23;74.60;96786.28;1742841;80;21334;-84
2021/05/29 01:12:48;;;;;;;22.13;18.30;;;;;;;11.15;74.51;96789.74;1741688;81;21313;-84
2021/05/29 01:15:16;;;;;;;19.82;17.70;;;;;;;11.17;74.68;96794.77;1745859;80;21070;-84
2021/05/29 01:17:42;;;;;;;21.15;18.80;;;;;;;11.18;74.84;96783.38;1742021;81;21102;-85
2021/05/29 01:20:08;;;;;;;22.17;19.62;;;;;;;11.15;74.86;96789.74;1688129;83;20993;-84
2021/05/29 01:22:45;;;;;;;19.57;17.57;;;;;;;11.17;74.88;96786.97;1743707;81;21095;-83
2021/05/29 01:25:24;;;;;;;18.87;16.87;;;;;;;11.18;75.04;96785.98;1736216;81;20961;-83
2021/05/29 01:27:59;;;;;;;18.92;17.02;;;;;;;11.13;75.23;96793.82;1746996;80;20940;-84
2021/05/29 01:30:25;;;;;;;19.82;16.02;;;;;;;11.08;75.07;96796.15;1751080;81;22280;-84
2021/05/29 01:32:52;;;;;;;18.85;16.42;;;;;;;11.06;75.33;96788.17;1743055;80;21002;-83
2021/05/29 01:35:18;;;;;;;19.87;16.15;;;;;;;11.03;75.08;96788.53;1677878;84;21319;-84
2021/05/29 01:37:44;;;;;;;18.20;15.13;;;;;;;11.02;75.16;96783.83;1669404;83;21009;-84
2021/05/29 01:40:11;;;;;;;18.80;16.35;;;;;;;10.99;75.38;96786.78;1685453;84;20948;-84
2021/05/29 01:42:37;;;;;;;16.77;15.08;;;;;;;10.95;75.36;96784.22;1673810;83;20948;-84
2021/05/29 01:45:05;;;;;;;17.77;15.25;;;;;;;10.91;75.43;96782.14;1744034;81;21074;-83
2021/05/29 01:47:34;;;;;;;16.73;14.50;;;;;;;10.89;75.54;96782.78;1737270;81;21043;-83
2021/05/29 01:49:59;;;;;;;16.75;14.95;;;;;;;10.90;75.48;96784.40;1747125;81;21355;-84
2021/05/29 01:52:54;;;;;;;17.90;14.18;;;;;;;10.96;75.54;96781.12;1739896;81;21031;-83
2021/05/29 01:55:29;;;;;;;14.93;13.40;;;;;;;10.96;75.71;96790.22;1735976;81;21000;-84
2021/05/29 01:57:55;;;;;;;17.37;14.45;;;;;;;10.88;75.54;96784.58;1739478;81;20956;-83
2021/05/29 02:00:24;;;;;;;18.32;15.35;;;;;;;10.89;75.71;96783.59;1739686;81;21265;-85
2021/05/29 02:02:50;;;;;;;17.87;14.55;;;;;;;10.89;75.84;96782.78;1736663;81;20966;-85
2021/05/29 02:05:23;;;;;;;15.98;13.40;;;;;;;10.88;75.77;96778.56;1737418;81;21310;-85
2021/05/29 02:07:49;;;;;;;18.55;15.05;;;;;;;10.78;75.73;96766.63;1744278;81;20948;-84
2021/05/29 02:10:20;;;;;;;15.95;14.35;;;;;;;10.81;75.74;96771.97;1739646;81;21016;-84
2021/05/29 02:12:48;;;;;;;17.10;15.18;;;;;;;10.76;76.02;96776.39;1736784;81;21277;-85
2021/05/29 02:15:18;;;;;;;18.00;16.12;;;;;;;10.73;76.13;96778.02;1732479;81;21032;-84
2021/05/29 02:17:47;;;;;;;17.52;15.72;;;;;;;10.69;76.18;96775.94;1730328;81;21011;-85
2021/05/29 02:20:13;;;;;;;19.00;17.00;;;;;;;10.68;76.30;96773.83;1735917;81;20947;-84
2021/05/29 02:22:39;;;;;;;18.48;16.50;;;;;;;10.68;76.37;96771.23;1722782;81;20966;-84
2021/05/29 02:25:05;;;;;;;19.50;17.15;;;;;;;10.69;76.28;96772.04;1732975;81;21272;-85
2021/05/29 02:27:31;;;;;;;18.10;16.23;;;;;;;10.71;76.26;96770.88;1743660;81;20944;-85
2021/05/29 02:29:57;;;;;;;19.02;17.02;;;;;;;10.73;76.25;96772.01;1736202;81;21322;-85
2021/05/29 02:32:22;;;;;;;18.65;16.62;;;;;;;10.75;76.27;96760.48;1734977;81;20978;-84
2021/05/29 02:34:48;;;;;;;20.00;17.90;;;;;;;10.78;76.38;96758.83;1746447;81;21046;-85
2021/05/29 02:37:14;;;;;;;19.92;17.60;;;;;;;10.75;76.28;96759.67;1748726;81;20959;-85
2021/05/29 02:39:40;;;;;;;18.50;16.70;;;;;;;10.75;76.25;96755.77;1747656;81;20935;-84
2021/05/29 02:42:06;;;;;;;18.82;16.30;;;;;;;10.81;76.37;96756.37;1745374;81;21010;-84
2021/05/29 02:44:32;;;;;;;18.35;16.48;;;;;;;10.85;76.33;96756.33;1753757;81;20927;-86
2021/05/29 02:46:58;;;;;;;18.87;17.02;;;;;;;10.88;76.33;96755.98;1750379;81;21342;-85
2021/05/29 02:49:24;;;;;;;21.82;17.52;;;;;;;10.91;76.22;96760.86;1745877;81;20949;-85
2021/05/29 02:51:50;;;;;;;19.52;17.45;;;;;;;10.89;76.28;96757.59;1752975;81;20978;-86
2021/05/29 02:54:15;;;;;;;18.87;16.85;;;;;;;10.87;76.29;96755.66;1743624;81;21224;-84
2021/05/29 02:56:41;;;;;;;18.55;16.35;;;;;;;10.84;76.37;96758.61;1742533;81;20966;-85
2021/05/29 02:59:07;;;;;;;18.98;16.40;;;;;;;10.82;76.49;96769.19;1753659;81;20973;-84
2021/05/29 03:01:32;;;;;;;18.12;16.23;;;;;;;10.83;76.50;96768.20;1747870;81;21385;-85
2021/05/29 03:03:58;;;;;;;18.80;16.80;;;;;;;10.85;76.45;96765.92;1744219;81;20981;-85
2021/05/29 03:06:24;;;;;;;18.17;16.32;;;;;;;10.89;76.45;96765.39;1752837;81;20939;-85
2021/05/29 03:08:49;;;;;;;20.08;18.05;;;;;;;10.91;76.42;96766.05;1742473;81;21240;-85
2021/05/29 03:11:16;;;;;;;19.57;17.48;;;;;;;10.87;76.44;96763.46;1751382;81;21024;-84
2021/05/29 03:13:41;;;;;;;19.95;17.87;;;;;;;10.86;76.72;96762.34;1680859;83;21030;-84
2021/05/29 03:16:07;;;;;;;19.07;16.80;;;;;;;10.82;76.55;96759.28;1681555;83;21335;-84
2021/05/29 03:18:33;;;;;;;17.92;16.15;;;;;;;10.84;76.75;96761.22;1686499;83;21026;-84
2021/05/29 03:20:59;;;;;;;19.20;17.27;;;;;;;10.89;76.70;96756.78;1665378;83;21039;-84
2021/05/29 03:23:26;;;;;;;20.40;18.25;;;;;;;10.88;76.56;96761.67;1680626;83;21077;-84
2021/05/29 03:25:52;;;;;;;20.50;18.40;;;;;;;10.85;76.62;96761.53;1676823;84;20970;-84
2021/05/29 03:28:17;;;;;;;22.37;18.42;;;;;;;10.85;76.77;96760.23;1688384;84;21136;-84
2021/05/29 03:30:43;;;;;;;21.55;19.12;;;;;;;10.77;76.76;96759.00;1700761;83;21003;-84
2021/05/29 03:33:12;;;;;;;21.37;18.65;;;;;;;10.68;76.92;96761.33;1686404;83;20990;-84
2021/05/29 03:35:37;;;;;;;22.93;20.50;;;;;;;10.66;77.15;96760.20;1739200;81;21042;-84
2021/05/29 03:38:04;;;;;;;25.12;20.75;;;;;;;10.65;77.10;96762.48;1727494;81;21034;-85
2021/05/29 03:40:29;;;;;;;23.27;20.85;;;;;;;10.64;77.36;96765.27;1740723;81;21332;-86
2021/05/29 03:42:57;;;;;;;25.72;22.42;;;;;;;10.63;77.33;96764.45;1733956;81;20952;-85
2021/05/29 03:45:22;;;;;;;24.10;21.60;;;;;;;10.61;77.44;96766.42;1731372;81;20927;-85
2021/05/29 03:47:48;;;;;;;23.40;20.32;;;;;;;10.60;77.58;96762.20;1731356;81;21038;-85
2021/05/29 03:50:18;;;;;;;19.42;17.42;;;;;;;10.63;77.56;96759.75;1734087;80;20930;-86
2021/05/29 03:52:44;;;;;;;22.20;19.90;;;;;;;10.63;77.92;96768.35;1729684;81;21027;-85
2021/05/29 03:55:13;;;;;;;22.75;19.23;;;;;;;10.51;77.85;96768.42;1733797;81;21026;-85
2021/05/29 03:57:39;;;;;;;19.45;17.45;;;;;;;10.43;78.15;96762.80;1739159;81;21050;-86
2021/05/29 04:00:09;;;;;;;20.55;18.40;;;;;;;10.35;77.73;96772.41;1700984;83;20962;-86
2021/05/29 04:02:35;;;;;;;20.95;18.73;;;;;;;10.32;77.98;96772.75;1729855;81;20976;-86
2021/05/29 04:05:01;;;;;;;20.12;18.02;;;;;;;10.32;78.11;96776.65;1733187;81;20968;-85
2021/05/29 04:07:27;;;;;;;19.02;16.87;;;;;;;10.30;78.23;96778.12;1740844;81;21165;-84
2021/05/29 04:09:53;;;;;;;20.25;18.15;;;;;;;10.31;78.27;96779.73;1738458;81;21245;-84
2021/05/29 04:12:19;;;;;;;18.35;16.55;;;;;;;10.34;78.23;96777.28;1730602;81;20943;-85
2021/05/29 04:14:44;;;;;;;18.10;16.30;;;;;;;10.35;77.99;96780.20;1730532;81;21269;-84
2021/05/29 04:17:12;;;;;;;20.52;18.37;;;;;;;10.40;78.03;96786.49;1744947;81;21855;-85
2021/05/29 04:19:38;;;;;;;20.57;18.42;;;;;;;10.44;78.13;96782.59;1738354;80;21045;-84
2021/05/29 04:22:03;;;;;;;20.92;18.73;;;;;;;10.45;78.21;96792.01;1730140;81;21334;-84
2021/05/29 04:24:29;;;;;;;20.27;18.20;;;;;;;10.44;78.32;96789.58;1733528;81;21034;-84
2021/05/29 04:26:55;;;;;;;21.85;19.55;;;;;;;10.44;78.30;96788.28;1675778;84;20979;-84
2021/05/29 04:29:21;;;;;;;20.75;18.55;;;;;;;10.44;78.25;96791.69;1739778;81;21897;-84
2021/05/29 04:31:46;;;;;;;20.57;18.52;;;;;;;10.44;78.52;96792.98;1739689;81;20924;-84
2021/05/29 04:34:12;;;;;;;20.75;18.75;;;;;;;10.42;78.44;96805.83;1741034;81;20989;-84
2021/05/29 04:36:38;;;;;;;21.42;19.20;;;;;;;10.43;78.48;96804.85;1683294;84;21330;-84
2021/05/29 04:39:04;;;;;;;20.25;18.07;;;;;;;10.40;78.38;96810.36;1681486;83;21002;-84
2021/05/29 04:41:30;;;;;;;20.15;18.15;;;;;;;10.32;78.44;96807.81;1681810;83;20966;-84
2021/05/29 04:43:56;;;;;;;15.40;13.68;;;;;;;10.27;78.42;96816.61;1692172;83;21057;-84
2021/05/29 04:46:23;;;;;;;14.95;13.45;;;;;;;10.27;78.38;96819.21;1693272;83;21074;-84
2021/05/29 04:48:48;;;;;;;12.68;11.48;;;;;;;10.18;77.79;96811.41;1699439;83;21374;-84
2021/05/29 04:51:17;;;;;;;11.05;9.73;;;;;;;10.11;78.07;96819.56;1727904;81;21087;-84
2021/05/29 04:53:47;;;;;;;10.60;9.58;;;;;;;9.93;78.94;96817.19;1723829;81;20982;-84
2021/05/29 04:56:14;;;;;;;16.97;15.25;;;;;;;9.79;79.09;96822.25;1739731;81;20947;-84
2021/05/29 04:58:40;;;;;;;16.82;15.03;;;;;;;9.71;78.99;96819.66;1745989;81;20986;-85
2021/05/29 05:01:11;;;;;;;15.28;13.68;;;;;;;9.73;79.26;96825.48;1710433;83;20966;-85
2021/05/29 05:03:37;;;;;;;13.08;11.78;;;;;;;9.73;79.42;96833.27;1715629;81;21043;-84
2021/05/29 05:06:04;;;;;;;12.95;11.75;;;;;;;9.70;79.27;96843.98;1746939;81;21359;-84
2021/05/29 05:08:29;;;;;;;11.78;10.68;;;;;;;9.69;79.21;96846.27;1747168;80;21117;-85
2021/05/29 05:10:55;;;;;;;10.30;9.30;;;;;;;9.70;79.03;96848.69;1752127;81;20981;-84
2021/05/29 05:13:24;;;;;;;10.63;9.48;;;;;;;9.67;78.91;96848.22;1748017;81;20993;-84
2021/05/29 05:15:51;;;;;;;9.00;8.13;;;;;;;9.60;79.15;96855.37;1739765;81;21344;-84
2021/05/29 05:18:20;;;;;;;9.50;8.58;;;;;;;9.56;79.20;96851.95;1719358;82;21042;-85
2021/05/29 05:20:45;;;;;;;10.60;9.58;;;;;;;9.52;79.60;96854.06;1724002;81;20975;-84
2021/05/29 05:23:11;;;;;;;10.32;9.25;;;;;;;9.52;79.57;96863.14;1725577;81;21002;-84
2021/05/29 05:25:37;;;;;;;10.25;9.25;;;;;;;9.56;79.78;96859.73;1735250;81;20983;-84
2021/05/29 05:28:04;;;;;;;10.18;9.08;;;;;;;9.59;79.65;96856.31;1736652;81;21066;-84
2021/05/29 05:30:32;;;;;;;10.05;9.05;;;;;;;9.63;79.55;96859.42;1731173;81;21018;-84
2021/05/29 05:33:03;;;;;;;12.10;10.90;;;;;;;9.69;79.60;96864.43;1722593;82;21034;-84
2021/05/29 05:35:26;;;;;;;11.93;10.72;;;;;;;9.71;79.56;96865.07;1733943;80;21375;-86
2021/05/29 05:37:52;;;;;;;11.35;10.25;;;;;;;9.77;79.57;96864.44;1722951;80;20966;-86
2021/05/29 05:40:17;;;;;;;10.15;9.08;;;;;;;9.84;79.48;96866.67;1717703;81;20978;-86
2021/05/29 05:42:43;;;;;;;10.78;9.78;;;;;;;9.84;78.88;96864.08;1733953;81;20983;-86
2021/05/29 05:45:10;;;;;;;9.58;8.60;;;;;;;9.88;79.13;96860.98;1715782;81;21318;-86
2021/05/29 05:47:35;;;;;;;10.20;9.23;;;;;;;9.94;79.00;96859.53;1712715;81;21081;-84
2021/05/29 05:50:02;;;;;;;9.43;8.45;;;;;;;9.93;78.66;96857.91;1698368;82;20971;-85
2021/05/29 05:52:28;;;;;;;9.73;8.83;;;;;;;9.99;78.74;96859.83;1716578;81;21299;-84
2021/05/29 05:54:53;;;;;;;9.23;8.33;;;;;;;10.04;78.80;96858.84;1713695;81;20958;-84
2021/05/29 05:57:19;;;;;;;6.70;6.10;;;;;;;10.13;78.75;96858.34;1722790;81;21030;-85
2021/05/29 05:59:45;;;;;;;6.78;6.10;;;;;;;10.17;78.26;96860.43;1718361;81;21228;-84
2021/05/29 06:02:10;;;;;;;7.05;6.37;;;;;;;10.19;78.14;96854.58;1710934;81;20935;-84
2021/05/29 06:04:36;;;;;;;7.83;6.22;;;;;;;10.25;78.36;96863.99;1730338;81;20942;-83
2021/05/29 06:07:02;;;;;;;7.25;6.65;;;;;;;10.33;78.72;96859.59;1737535;81;21310;-84
2021/05/29 06:09:28;;;;;;;6.00;5.50;;;;;;;10.40;78.37;96864.91;1710859;81;21011;-85
2021/05/29 06:11:55;;;;;;;5.92;5.42;;;;;;;10.43;78.00;96863.30;1729645;81;21026;-85
2021/05/29 06:19:46;;;;;;;6.20;5.62;;;;;;;10.52;77.95;96870.06;1718107;81;21038;-86
2021/05/29 06:22:12;;;;;;;6.00;5.50;;;;;;;10.53;77.91;96872.49;1729432;81;21502;-86
2021/05/29 06:24:38;;;;;;;6.90;6.20;;;;;;;10.49;77.86;96871.22;1726384;82;20963;-83
2021/05/29 06:27:05;;;;;;;6.58;5.67;;;;;;;10.48;77.68;96875.29;1723747;81;20927;-84
2021/05/29 06:29:31;;;;;;;6.45;5.85;;;;;;;10.50;77.59;96875.92;1717948;81;21070;-85
2021/05/29 06:31:57;;;;;;;6.62;6.03;;;;;;;10.52;77.37;96873.96;1739233;81;21932;-85
2021/05/29 06:34:22;;;;;;;6.40;5.47;;;;;;;10.52;77.15;96873.96;1717833;81;21018;-85
2021/05/29 06:36:50;;;;;;;6.92;5.65;;;;;;;10.55;77.25;96873.63;1725943;81;21070;-84
2021/05/29 06:39:16;;;;;;;6.60;6.00;;;;;;;10.59;77.35;96874.12;1742796;80;20974;-84
2021/05/29 06:41:42;;;;;;;7.30;6.60;;;;;;;10.65;77.20;96866.44;1731862;81;20947;-84
2021/05/29 06:44:10;;;;;;;7.03;6.33;;;;;;;10.72;77.43;96866.06;1702988;83;21279;-85
2021/05/29 06:46:36;;;;;;;6.17;5.58;;;;;;;10.78;76.95;96868.00;1692229;83;21277;-84
2021/05/29 06:49:03;;;;;;;6.50;5.90;;;;;;;10.83;76.84;96869.59;1683353;83;21055;-84
2021/05/29 06:51:37;;;;;;;6.42;5.83;;;;;;;10.90;76.79;96871.49;1685657;83;21279;-84
2021/05/29 06:54:04;;;;;;;6.53;5.92;;;;;;;10.97;77.01;96869.84;1691892;84;20998;-83
2021/05/29 06:59:12;;;;;;;7.33;6.62;;;;;;;11.01;76.88;96875.81;1697458;83;21066;-83
2021/05/29 07:01:37;;;;;;;6.12;5.62;;;;;;;11.07;76.58;96870.44;1680143;84;21062;-84
2021/05/29 07:04:03;;;;;;;15.10;13.60;;;;;;;11.10;76.21;96875.29;1653054;85;21410;-84
2021/05/29 07:06:29;;;;;;;8.35;6.62;;;;;;;11.14;76.73;96877.86;1681781;84;21007;-84
2021/05/29 07:08:57;;;;;;;5.58;5.10;;;;;;;11.23;76.75;96880.73;1687194;83;20998;-84
2021/05/29 07:11:22;;;;;;;5.50;4.65;;;;;;;11.31;76.67;96870.75;1692169;83;20973;-84
2021/05/29 07:13:48;;;;;;;4.58;4.17;;;;;;;11.39;76.07;96876.71;1668610;84;21057;-83
2021/05/29 07:16:15;;;;;;;3.25;2.95;;;;;;;11.49;75.96;96874.34;1690747;83;21347;-83
2021/05/29 07:18:45;;;;;;;4.33;3.35;;;;;;;11.56;75.72;96878.69;1700260;83;21013;-84
2021/05/29 07:21:16;;;;;;;4.70;3.67;;;;;;;11.71;76.29;96871.73;1691078;83;21002;-83
2021/05/29 07:23:43;;;;;;;3.77;3.47;;;;;;;11.80;75.70;96871.17;1652851;84;20971;-83
2021/05/29 07:26:09;;;;;;;4.40;3.47;;;;;;;11.86;74.83;96874.36;1680021;83;20967;-83
2021/05/29 07:28:35;;;;;;;3.37;3.08;;;;;;;11.88;75.34;96871.11;1696974;83;21126;-85
2021/05/29 07:31:01;;;;;;;3.50;3.20;;;;;;;11.81;74.42;96873.28;1689165;83;21315;-85
2021/05/29 07:33:27;;;;;;;2.92;2.27;;;;;;;11.83;75.21;96873.42;1680139;84;21330;-86
2021/05/29 07:35:53;;;;;;;2.50;2.17;;;;;;;11.82;73.47;96875.70;1682808;83;21039;-86
2021/05/29 07:38:20;;;;;;;2.67;2.47;;;;;;;11.80;73.21;96882.08;1658164;85;21043;-85
2021/05/29 07:40:45;;;;;;;3.95;3.40;;;;;;;11.77;72.27;96879.31;1671774;84;21253;-85
2021/05/29 07:43:11;;;;;;;3.27;2.98;;;;;;;11.73;73.26;96875.45;1657649;84;21073;-82
2021/05/29 07:45:37;;;;;;;4.85;4.12;;;;;;;11.65;73.56;96878.92;1652541;85;21089;-82
2021/05/29 07:48:04;;;;;;;5.00;3.77;;;;;;;11.61;73.16;96875.55;1662556;84;21023;-82
2021/05/29 07:50:29;;;;;;;5.50;4.97;;;;;;;11.63;74.46;96878.78;1668230;84;20968;-82
2021/05/29 07:52:55;;;;;;;6.22;5.55;;;;;;;11.73;73.41;96871.05;1654887;84;20956;-85
2021/05/29 07:55:21;;;;;;;6.85;5.42;;;;;;;11.80;73.02;96871.17;1659745;84;21034;-85
2021/05/29 07:57:47;;;;;;;6.62;5.65;;;;;;;11.90;73.44;96867.03;1715983;81;21006;-86
2021/05/29 08:00:16;;;;;;;7.17;6.47;;;;;;;11.94;72.82;96865.19;1722083;81;21026;-85
2021/05/29 08:02:43;;;;;;;7.17;6.47;;;;;;;12.07;73.13;96866.37;1710753;81;20995;-88
2021/05/29 08:05:17;;;;;;;9.00;7.40;;;;;;;12.15;73.03;96866.27;1706760;83;21094;-86
2021/05/29 08:07:40;;;;;;;7.92;7.12;;;;;;;12.16;73.23;96871.79;1722805;81;21031;-85
2021/05/29 08:10:09;;;;;;;5.87;5.28;;;;;;;12.24;73.04;96872.52;1726526;82;20979;-85
2021/05/29 08:12:34;;;;;;;7.53;6.60;;;;;;;12.31;72.40;96865.59;1726947;82;20955;-85
2021/05/29 08:15:00;;;;;;;7.92;7.17;;;;;;;12.40;71.87;96865.02;1720103;83;20951;-83
2021/05/29 08:17:26;;;;;;;5.90;5.30;;;;;;;12.42;72.17;96868.25;1730245;82;21276;-83
2021/05/29 08:19:51;;;;;;;5.80;5.17;;;;;;;12.48;72.29;96871.42;1728975;81;21088;-84
2021/05/29 08:22:17;;;;;;;5.17;4.67;;;;;;;12.43;71.41;96876.87;1722562;81;20999;-84
2021/05/29 08:24:43;;;;;;;6.08;5.37;;;;;;;12.43;71.90;96873.77;1709776;83;21003;-83
2021/05/29 08:27:09;;;;;;;5.75;5.25;;;;;;;12.50;72.07;96869.93;1710414;81;20959;-83
2021/05/29 08:29:35;;;;;;;6.03;5.08;;;;;;;12.52;71.72;96862.73;1711651;81;21081;-82
2021/05/29 08:32:01;;;;;;;5.75;5.25;;;;;;;12.59;71.71;96870.97;1723344;81;21038;-83
2021/05/29 08:34:27;;;;;;;5.95;5.35;;;;;;;12.61;71.95;96865.56;1730881;81;20979;-83
2021/05/29 08:36:53;;;;;;;5.80;5.17;;;;;;;12.65;71.70;96868.11;1729458;81;21100;-83
2021/05/29 08:39:19;;;;;;;5.30;4.80;;;;;;;12.68;72.46;96865.62;1722589;81;21038;-83
2021/05/29 08:41:45;;;;;;;5.95;5.25;;;;;;;12.51;72.22;96865.84;1734146;82;20970;-82
2021/05/29 08:44:11;;;;;;;6.33;5.72;;;;;;;12.46;72.28;96864.28;1700268;81;20959;-82
2021/05/29 08:46:37;;;;;;;6.10;5.50;;;;;;;12.42;73.00;96865.64;1723808;81;20954;-81
2021/05/29 08:49:04;;;;;;;6.45;5.85;;;;;;;12.43;73.76;96865.95;1726795;81;21058;-81
2021/05/29 08:51:29;;;;;;;6.50;5.90;;;;;;;12.44;73.85;96865.45;1728991;81;21236;-82
2021/05/29 08:53:57;;;;;;;7.17;6.53;;;;;;;12.44;73.67;96865.45;1725120;81;21038;-82
2021/05/29 08:56:24;;;;;;;6.28;5.60;;;;;;;12.43;73.60;96868.55;1717355;81;21375;-82
2021/05/29 08:58:50;;;;;;;7.55;5.90;;;;;;;12.50;73.11;96867.33;1725442;81;21049;-81
2021/05/29 09:01:16;;;;;;;7.05;5.70;;;;;;;12.54;72.02;96871.20;1721049;81;21283;-82
2021/05/29 09:03:52;;;;;;;7.20;6.53;;;;;;;12.55;72.92;96871.52;1710398;82;21010;-83
2021/05/29 09:06:20;;;;;;;6.72;5.97;;;;;;;12.52;72.57;96877.88;1730423;82;20995;-83
2021/05/29 09:09:00;;;;;;;5.95;5.42;;;;;;;12.48;72.53;96883.64;1730609;81;21007;-82
2021/05/29 09:11:49;;;;;;;6.67;6.08;;;;;;;12.35;71.76;96873.84;1734371;81;21021;-83
2021/05/29 09:14:32;;;;;;;8.80;8.00;;;;;;;12.26;72.32;96871.84;1732092;81;20943;-83
2021/05/29 09:17:18;;;;;;;51.80;40.83;;;;;;;12.23;73.42;96870.10;1728981;81;21014;-83
2021/05/29 09:20:07;;;;;;;15.48;13.85;;;;;;;12.25;74.08;96865.02;1716479;81;21017;-83
2021/05/29 09:22:39;;;;;;;7.12;6.47;;;;;;;12.36;74.33;96861.13;1732037;81;20994;-83
2021/05/29 09:25:15;;;;;;;7.87;7.03;;;;;;;12.58;73.95;96860.23;1724072;81;21359;-82
2021/05/29 09:27:55;;;;;;;7.58;6.87;;;;;;;12.74;73.24;96856.60;1734575;82;21014;-82
2021/05/29 09:30:41;;;;;;;8.33;7.50;;;;;;;12.93;72.76;96852.09;1716674;82;20982;-81
2021/05/29 09:33:25;;;;;;;9.60;8.70;;;;;;;13.25;72.60;96854.44;1725485;81;21029;-82
2021/05/29 09:36:06;;;;;;;9.63;8.83;;;;;;;13.51;72.92;96851.58;1712761;81;21033;-84
2021/05/29 09:38:40;;;;;;;8.38;7.67;;;;;;;13.87;72.21;96853.75;1706991;81;21042;-84
2021/05/29 09:41:31;;;;;;;6.33;5.62;;;;;;;14.07;72.42;96850.76;1714845;81;20983;-83
2021/05/29 09:44:01;;;;;;;6.95;6.30;;;;;;;14.17;70.90;96847.31;1714739;81;21066;-83
2021/05/29 09:46:27;;;;;;;6.65;6.05;;;;;;;14.27;69.81;96847.75;1715103;81;21315;-83
2021/05/29 09:48:59;;;;;;;6.33;5.72;;;;;;;14.28;70.12;96846.75;1705267;81;21030;-85
2021/05/29 09:51:32;;;;;;;6.70;6.10;;;;;;;14.24;70.39;96850.75;1714818;81;21006;-85
2021/05/29 09:54:08;;;;;;;6.05;5.55;;;;;;;14.15;70.76;96851.89;1727906;81;21082;-85
2021/05/29 09:56:45;;;;;;;6.37;5.35;;;;;;;13.86;67.24;96852.14;1720018;81;21050;-85
2021/05/29 09:59:17;;;;;;;6.17;5.58;;;;;;;13.69;68.52;96855.53;1721199;83;21030;-85
2021/05/29 10:01:53;;;;;;;7.28;6.58;;;;;;;13.58;68.17;96853.42;1705916;81;20987;-85
2021/05/29 10:04:37;;;;;;;7.80;7.10;;;;;;;13.48;69.12;96856.34;1714729;81;21014;-85
2021/05/29 10:07:10;;;;;;;7.00;6.05;;;;;;;13.43;69.05;96849.58;1718528;82;20999;-85
2021/05/29 10:09:36;;;;;;;6.35;5.12;;;;;;;13.39;69.16;96851.77;1725797;83;20952;-85
2021/05/29 10:12:04;;;;;;;5.42;4.92;;;;;;;13.40;70.15;96858.60;1716402;81;21007;-83
2021/05/29 10:14:31;;;;;;;5.20;4.70;;;;;;;13.39;68.19;96845.74;1712342;83;21015;-84
2021/05/29 10:17:04;;;;;;;5.83;5.35;;;;;;;13.40;68.18;96839.52;1717023;82;21019;-84
2021/05/29 10:19:30;;;;;;;7.03;5.97;;;;;;;13.43;69.86;96850.39;1718832;81;21391;-83
2021/05/29 10:21:56;;;;;;;6.17;5.58;;;;;;;13.48;69.97;96848.02;1709893;82;21018;-83
2021/05/29 10:24:24;;;;;;;7.25;6.62;;;;;;;13.45;69.47;96851.50;1718532;83;20971;-84
2021/05/29 10:26:50;;;;;;;7.80;6.92;;;;;;;13.36;68.75;96851.34;1727440;81;20995;-84
2021/05/29 10:29:18;;;;;;;7.53;6.15;;;;;;;13.28;68.74;96858.78;1734356;81;21308;-84
2021/05/29 10:31:44;;;;;;;7.72;6.00;;;;;;;13.19;67.96;96858.11;1692392;81;20955;-83
2021/05/29 10:34:11;;;;;;;6.90;6.30;;;;;;;13.07;69.38;96852.23;1723388;83;21023;-84
2021/05/29 10:36:44;;;;;;;6.35;5.72;;;;;;;13.07;70.28;96856.95;1727709;81;21014;-84
2021/05/29 10:39:24;;;;;;;7.62;6.45;;;;;;;13.16;70.04;96858.44;1728284;82;20939;-84
2021/05/29 10:41:57;;;;;;;7.55;6.65;;;;;;;13.30;70.36;96855.98;1730900;82;20927;-83
2021/05/29 10:44:42;;;;;;;6.60;6.00;;;;;;;13.46;70.83;96856.53;1732013;82;21264;-83
2021/05/29 10:47:18;;;;;;;7.83;6.65;;;;;;;13.51;70.58;96854.69;1724824;81;21002;-84
2021/05/29 10:49:54;;;;;;;6.42;5.83;;;;;;;13.53;70.58;96856.61;1732828;82;21097;-84
2021/05/29 10:52:43;;;;;;;4.92;4.35;;;;;;;13.42;69.19;96860.52;1732468;82;21038;-84
2021/05/29 10:55:21;;;;;;;4.28;3.58;;;;;;;13.32;68.89;96867.84;1732514;81;21264;-83
2021/05/29 10:58:06;;;;;;;4.20;3.75;;;;;;;13.31;68.93;96870.15;1718213;82;20989;-83
2021/05/29 11:00:43;;;;;;;6.17;4.58;;;;;;;13.37;69.09;96877.75;1728955;82;20978;-84
2021/05/29 11:03:24;;;;;;;3.70;2.87;;;;;;;13.36;69.87;96877.44;1719234;81;20994;-83
2021/05/29 11:06:01;;;;;;;2.67;2.47;;;;;;;13.33;67.08;96885.62;1723648;82;20983;-84
2021/05/29 11:08:54;;;;;;;3.02;2.62;;;;;;;13.21;66.54;96882.22;1730316;81;20955;-84
2021/05/29 11:14:52;;;;;;;6.87;4.25;;;;;;;12.89;69.17;96904.81;1714002;81;20986;-84
2021/05/29 11:17:20;;;;;;;8.05;6.53;;;;;;;12.70;69.79;96902.29;1697954;82;21066;-83
2021/05/29 11:20:10;;;;;;;4.42;3.58;;;;;;;12.37;69.59;96905.77;1699441;82;21101;-84
2021/05/29 11:22:45;;;;;;;6.75;4.83;;;;;;;12.19;69.57;96916.52;1707977;82;21347;-84
2021/05/29 11:25:14;;;;;;;5.90;4.28;;;;;;;11.95;69.20;96907.66;1722039;81;21037;-83
2021/05/29 11:27:40;;;;;;;5.75;4.22;;;;;;;11.80;69.51;96911.53;1729768;82;21002;-84
2021/05/29 11:30:20;;;;;;;6.78;6.12;;;;;;;11.73;70.22;96915.31;1717501;82;21050;-84
2021/05/29 11:35:47;;;;;;;6.28;4.55;;;;;;;11.67;71.06;96906.08;1719717;81;21363;-86
2021/05/29 11:38:31;;;;;;;6.33;5.08;;;;;;;11.69;71.27;96901.50;1737501;81;20990;-86
2021/05/29 11:41:11;;;;;;;6.50;5.90;;;;;;;11.78;71.67;96894.44;1725374;82;21648;-86
2021/05/29 11:43:49;;;;;;;4.78;4.33;;;;;;;11.93;71.68;96888.31;1720115;81;21010;-86
2021/05/29 11:46:20;;;;;;;5.12;4.05;;;;;;;12.04;71.63;96875.35;1721693;81;20947;-86
2021/05/29 11:48:50;;;;;;;5.10;3.75;;;;;;;12.11;71.71;96862.41;1728493;81;21279;-84